Time;durP1;ratioP1;P1;durP2;ratioP2;P2;SDS_P1;SDS_P2;PMS_P1;PMS_P2;Temp;Humidity;BMP_temperature;BMP_pressure;BME280_temperature;BME280_humidity;BME280_pressure;Samples;Min_cycle;Max_cycle;Signal;HPM_P1;HPM_P2
2022/09/06 00:01:43;;;;;;;5.10;4.07;;;19.10;99.90;;;;;;7400005;19;20033;-83
2022/09/06 00:04:09;;;;;;;5.28;4.78;;;19.00;99.90;;;;;;7398792;19;20034;-82
2022/09/06 00:06:35;;;;;;;5.60;4.20;;;19.10;99.90;;;;;;7396401;19;20393;-83
2022/09/06 00:09:01;;;;;;;5.22;4.72;;;19.10;99.90;;;;;;7399773;19;20022;-82
2022/09/06 00:11:27;;;;;;;5.53;4.45;;;19.00;99.90;;;;;;7400366;19;20014;-83
2022/09/06 00:13:53;;;;;;;5.70;4.90;;;19.00;99.90;;;;;;7397462;19;20018;-83
2022/09/06 00:16:22;;;;;;;5.75;4.38;;;19.00;99.90;;;;;;7397471;19;20506;-83
2022/09/06 00:18:48;;;;;;;6.38;3.95;;;19.00;99.90;;;;;;7396303;19;20018;-82
2022/09/06 00:21:23;;;;;;;5.65;4.50;;;19.00;99.90;;;;;;7396148;19;20423;-83
2022/09/06 00:23:49;;;;;;;5.20;4.70;;;18.90;99.90;;;;;;7399445;19;20010;-83
2022/09/06 00:26:15;;;;;;;5.32;4.43;;;18.90;99.90;;;;;;7400345;19;20022;-83
2022/09/06 00:28:41;;;;;;;5.20;4.70;;;18.90;99.90;;;;;;7396313;19;20078;-83
2022/09/06 00:31:12;;;;;;;6.70;4.88;;;18.80;99.90;;;;;;7400510;19;20350;-83
2022/09/06 00:33:38;;;;;;;5.43;4.40;;;18.80;99.90;;;;;;7400226;19;20014;-83
2022/09/06 00:36:04;;;;;;;6.90;4.70;;;18.80;99.90;;;;;;7400512;19;20019;-83
2022/09/06 00:38:30;;;;;;;7.88;5.18;;;18.90;99.90;;;;;;7395156;19;20034;-83
2022/09/06 00:40:57;;;;;;;8.20;4.68;;;18.80;99.90;;;;;;7397372;19;20010;-83
2022/09/06 00:43:23;;;;;;;5.90;4.72;;;18.80;99.90;;;;;;7399224;19;20011;-83
2022/09/06 00:45:49;;;;;;;6.10;4.82;;;18.80;99.90;;;;;;7398171;19;20348;-83
2022/09/06 00:48:15;;;;;;;5.55;4.22;;;18.70;99.90;;;;;;7396821;19;20014;-83
2022/09/06 00:50:42;;;;;;;5.40;4.85;;;18.80;99.90;;;;;;7395095;19;20053;-83
2022/09/06 00:53:08;;;;;;;5.50;4.30;;;18.80;99.90;;;;;;7398393;19;20014;-82
2022/09/06 00:55:34;;;;;;;6.03;4.50;;;18.80;99.90;;;;;;7399117;19;20022;-83
2022/09/06 00:58:00;;;;;;;9.02;5.30;;;19.00;99.90;;;;;;7394940;19;20018;-83
2022/09/06 01:00:26;;;;;;;5.95;5.03;;;18.90;99.90;;;;;;7394970;19;20014;-83
2022/09/06 01:02:53;;;;;;;8.95;5.18;;;18.90;99.90;;;;;;7397745;19;20043;-83
2022/09/06 01:05:22;;;;;;;5.55;4.57;;;18.80;99.90;;;;;;7397620;19;20019;-83
2022/09/06 01:08:27;;;;;;;9.32;5.20;;;18.90;99.90;;;;;;7396354;19;20007;-83
2022/09/06 01:11:13;;;;;;;9.10;5.30;;;18.70;99.90;;;;;;7394453;19;20013;-83
2022/09/06 01:13:39;;;;;;;6.43;4.93;;;18.70;99.90;;;;;;7398831;19;20022;-83
2022/09/06 01:16:38;;;;;;;7.10;5.32;;;18.70;99.90;;;;;;7396528;19;20015;-83
2022/09/06 01:19:16;;;;;;;6.25;5.40;;;18.60;99.90;;;;;;7399328;19;20018;-82
2022/09/06 01:22:01;;;;;;;6.85;5.53;;;18.60;99.90;;;;;;7395844;19;20014;-83
2022/09/06 01:24:45;;;;;;;7.05;5.45;;;18.70;99.90;;;;;;7400125;19;20066;-83
2022/09/06 01:27:45;;;;;;;6.97;5.43;;;18.70;99.90;;;;;;7396436;19;20018;-83
2022/09/06 01:30:13;;;;;;;6.63;5.05;;;18.80;99.90;;;;;;7396598;19;20022;-83
2022/09/06 01:32:47;;;;;;;4.53;3.92;;;18.80;99.90;;;;;;7398884;19;20032;-83
2022/09/06 01:35:26;;;;;;;6.43;5.25;;;18.70;99.90;;;;;;7395475;19;20027;-83
2022/09/06 01:37:54;;;;;;;7.50;5.78;;;18.70;99.90;;;;;;7395007;19;20014;-83
2022/09/06 01:40:19;;;;;;;7.05;5.55;;;18.70;99.90;;;;;;7397084;19;20345;-83
2022/09/06 01:42:47;;;;;;;6.85;5.60;;;18.70;99.90;;;;;;7395664;19;20030;-82
2022/09/06 01:45:19;;;;;;;9.00;6.30;;;18.60;99.90;;;;;;7394992;19;20014;-83
2022/09/06 01:48:15;;;;;;;6.68;6.07;;;18.50;99.90;;;;;;7395731;19;20022;-83
2022/09/06 01:50:44;;;;;;;6.22;5.50;;;18.50;99.90;;;;;;7395178;19;20018;-83
2022/09/06 01:53:24;;;;;;;7.10;5.88;;;18.40;99.90;;;;;;7396223;19;20519;-82
2022/09/06 01:56:08;;;;;;;5.43;4.90;;;18.30;99.90;;;;;;7397812;19;20031;-83
2022/09/06 01:59:00;;;;;;;6.88;6.15;;;18.30;99.90;;;;;;7394077;19;20352;-83
2022/09/06 02:01:38;;;;;;;8.90;6.35;;;18.30;99.90;;;;;;7394078;19;20014;-83
2022/09/06 02:04:27;;;;;;;10.57;5.97;;;18.20;99.90;;;;;;7397195;19;20014;-83
2022/09/06 02:06:59;;;;;;;8.70;6.38;;;18.10;99.90;;;;;;7394610;19;20515;-82
2022/09/06 02:09:27;;;;;;;7.85;6.45;;;18.10;99.90;;;;;;7394368;19;20043;-83
2022/09/06 02:11:58;;;;;;;8.90;6.90;;;18.00;99.90;;;;;;7396520;19;20061;-83
2022/09/06 02:14:51;;;;;;;9.77;6.95;;;18.00;99.90;;;;;;7396726;19;20022;-83
2022/09/06 02:17:22;;;;;;;7.75;6.95;;;17.90;99.90;;;;;;7392979;19;20499;-83
2022/09/06 02:20:03;;;;;;;7.82;7.05;;;17.80;99.90;;;;;;7394996;19;20022;-81
2022/09/06 02:22:33;;;;;;;7.50;6.10;;;17.80;99.90;;;;;;7396484;19;20018;-80
2022/09/06 02:25:00;;;;;;;8.38;7.40;;;17.80;99.90;;;;;;7398352;19;20025;-80
2022/09/06 02:27:26;;;;;;;9.52;6.90;;;17.80;99.90;;;;;;7394254;19;20569;-81
2022/09/06 02:29:52;;;;;;;8.60;7.20;;;17.80;99.90;;;;;;7392202;19;20487;-80
2022/09/06 02:32:25;;;;;;;7.50;6.80;;;17.80;99.90;;;;;;7394398;19;20014;-80
2022/09/06 02:34:53;;;;;;;7.82;7.00;;;17.80;99.90;;;;;;7391870;19;20383;-81
2022/09/06 02:37:21;;;;;;;8.05;7.25;;;17.80;99.90;;;;;;7392434;19;20003;-81
2022/09/06 02:39:47;;;;;;;7.60;6.90;;;17.80;99.90;;;;;;7394858;19;20399;-81
2022/09/06 02:42:16;;;;;;;9.65;7.47;;;17.80;99.90;;;;;;7393003;19;20044;-80
2022/09/06 02:44:42;;;;;;;9.55;7.13;;;17.80;99.90;;;;;;7392983;19;20026;-81
2022/09/06 02:47:08;;;;;;;7.82;6.80;;;17.80;99.90;;;;;;7391808;19;20015;-81
2022/09/06 02:49:36;;;;;;;7.63;6.75;;;17.80;99.90;;;;;;7393003;19;20007;-81
2022/09/06 02:52:02;;;;;;;8.73;7.18;;;17.80;99.90;;;;;;7393163;19;20021;-81
2022/09/06 02:54:29;;;;;;;8.15;7.35;;;17.80;99.90;;;;;;7395163;19;20074;-81
2022/09/06 02:56:55;;;;;;;8.10;7.20;;;17.80;99.90;;;;;;7392305;19;20011;-81
2022/09/06 02:59:22;;;;;;;8.18;7.38;;;17.80;99.90;;;;;;7392577;19;20010;-81
2022/09/06 03:01:47;;;;;;;11.70;7.45;;;17.80;99.90;;;;;;7393070;19;20024;-81
2022/09/06 03:04:14;;;;;;;13.23;8.27;;;17.80;99.90;;;;;;7394552;19;20407;-80
2022/09/06 03:06:40;;;;;;;8.55;7.70;;;17.80;99.90;;;;;;7394668;19;20019;-81
2022/09/06 03:09:06;;;;;;;8.82;7.93;;;17.80;99.90;;;;;;7392723;19;20021;-81
2022/09/06 03:11:31;;;;;;;9.45;8.43;;;17.90;99.90;;;;;;7395850;19;20480;-81
2022/09/06 03:13:57;;;;;;;9.30;8.27;;;17.90;99.90;;;;;;7401125;19;20018;-80
2022/09/06 03:16:23;;;;;;;8.73;7.82;;;17.80;99.90;;;;;;7400081;19;20040;-80
2022/09/06 03:18:49;;;;;;;7.70;6.97;;;17.80;99.90;;;;;;7400116;19;20013;-80
2022/09/06 03:21:15;;;;;;;9.00;8.20;;;17.80;99.90;;;;;;7399322;19;20486;-81
2022/09/06 03:23:40;;;;;;;9.85;8.20;;;17.80;99.90;;;;;;7402840;19;20025;-80
2022/09/06 03:26:07;;;;;;;9.48;7.60;;;17.80;99.90;;;;;;7400093;19;20038;-80
2022/09/06 03:28:33;;;;;;;8.90;8.15;;;17.80;99.90;;;;;;7400357;19;20524;-80
2022/09/06 03:30:59;;;;;;;9.95;8.73;;;17.90;99.90;;;;;;7402797;19;20010;-80
2022/09/06 03:33:25;;;;;;;9.35;8.45;;;17.90;99.90;;;;;;7401211;19;20024;-81
2022/09/06 03:35:59;;;;;;;11.35;7.97;;;17.90;99.90;;;;;;7399277;19;20022;-80
2022/09/06 03:38:27;;;;;;;9.63;8.82;;;17.90;99.90;;;;;;7398224;19;20010;-81
2022/09/06 03:40:53;;;;;;;10.75;8.68;;;17.90;99.90;;;;;;7397378;19;20061;-81
2022/09/06 03:43:21;;;;;;;12.98;8.88;;;17.90;99.90;;;;;;7401359;19;20034;-81
2022/09/06 03:45:49;;;;;;;10.27;9.15;;;17.90;99.90;;;;;;7398063;19;20500;-81
2022/09/06 03:48:16;;;;;;;9.75;8.85;;;17.80;99.90;;;;;;7401019;19;20032;-81
2022/09/06 03:50:47;;;;;;;10.35;9.32;;;17.80;99.90;;;;;;7399151;19;20018;-81
2022/09/06 03:53:14;;;;;;;10.48;9.48;;;17.80;99.90;;;;;;7401866;19;20014;-81
2022/09/06 03:55:47;;;;;;;15.07;9.68;;;17.90;99.90;;;;;;7400387;19;20019;-81
2022/09/06 03:58:14;;;;;;;10.68;9.55;;;17.80;99.90;;;;;;7400810;19;20015;-81
2022/09/06 04:00:40;;;;;;;10.60;9.60;;;17.80;99.90;;;;;;7398278;19;20031;-82
2022/09/06 04:03:06;;;;;;;10.63;9.55;;;17.80;99.90;;;;;;7402178;19;20018;-82
2022/09/06 04:05:33;;;;;;;11.35;9.25;;;17.90;99.90;;;;;;7401954;19;20361;-81
2022/09/06 04:07:59;;;;;;;11.93;9.52;;;17.90;99.90;;;;;;7399846;19;20085;-81
2022/09/06 04:10:24;;;;;;;9.15;8.32;;;17.90;99.90;;;;;;7397999;19;20374;-81
2022/09/06 04:12:50;;;;;;;10.95;9.73;;;17.90;99.90;;;;;;7397463;19;20375;-81
2022/09/06 04:15:16;;;;;;;10.82;9.73;;;17.90;99.90;;;;;;7394915;19;20100;-81
2022/09/06 04:17:46;;;;;;;10.38;9.38;;;18.00;99.90;;;;;;7396248;19;20011;-81
2022/09/06 04:20:14;;;;;;;10.80;9.70;;;17.90;99.90;;;;;;7397901;19;20017;-81
2022/09/06 04:22:39;;;;;;;10.63;9.65;;;17.90;99.90;;;;;;7397610;19;20014;-81
2022/09/06 04:25:06;;;;;;;11.00;9.95;;;17.90;99.90;;;;;;7397281;19;20018;-81
2022/09/06 04:27:32;;;;;;;7.72;7.13;;;18.00;99.90;;;;;;7398072;19;20022;-81
2022/09/06 04:29:58;;;;;;;9.10;7.75;;;18.00;99.90;;;;;;7399955;19;20030;-81
2022/09/06 04:32:24;;;;;;;8.75;7.90;;;18.10;99.90;;;;;;7396498;19;20014;-81
2022/09/06 04:34:49;;;;;;;10.70;9.57;;;18.20;99.90;;;;;;7395961;19;20021;-82
2022/09/06 04:37:18;;;;;;;11.38;10.18;;;18.20;99.90;;;;;;7396674;19;20018;-81
2022/09/06 04:39:45;;;;;;;10.13;9.25;;;18.10;99.90;;;;;;7397142;19;20048;-81
2022/09/06 04:42:11;;;;;;;11.35;10.15;;;18.10;99.90;;;;;;7398573;19;20031;-80
2022/09/06 04:44:37;;;;;;;11.73;9.68;;;18.10;99.90;;;;;;7401313;19;20070;-81
2022/09/06 04:47:08;;;;;;;10.65;9.63;;;18.00;99.90;;;;;;7397846;19;20079;-81
2022/09/06 04:49:34;;;;;;;11.88;10.35;;;18.00;99.90;;;;;;7395483;19;20017;-81
2022/09/06 04:52:00;;;;;;;11.52;10.32;;;17.90;99.90;;;;;;7398376;19;20018;-81
2022/09/06 04:54:26;;;;;;;11.65;10.15;;;17.90;99.90;;;;;;7399941;19;20014;-81
2022/09/06 04:56:52;;;;;;;11.40;10.25;;;17.90;99.90;;;;;;7394978;19;20085;-81
2022/09/06 04:59:18;;;;;;;11.55;10.50;;;17.90;99.90;;;;;;7396812;19;20021;-81
2022/09/06 05:01:44;;;;;;;13.43;11.27;;;17.90;99.90;;;;;;7398170;19;20026;-81
2022/09/06 05:04:09;;;;;;;16.10;10.93;;;17.90;99.90;;;;;;7399073;19;20081;-81
2022/09/06 05:06:38;;;;;;;12.75;10.95;;;17.80;99.90;;;;;;7396324;19;20050;-81
2022/09/06 05:09:04;;;;;;;11.20;9.52;;;17.90;99.90;;;;;;7398528;19;20015;-81
2022/09/06 05:11:29;;;;;;;14.07;10.63;;;18.00;99.90;;;;;;7396483;19;20340;-81
2022/09/06 05:13:55;;;;;;;12.70;10.93;;;18.00;99.90;;;;;;7399640;19;20026;-81
2022/09/06 05:16:21;;;;;;;13.23;11.82;;;18.00;99.90;;;;;;7394599;19;20017;-81
2022/09/06 05:18:47;;;;;;;13.52;10.95;;;18.00;99.90;;;;;;7393635;19;20021;-81
2022/09/06 05:21:13;;;;;;;11.55;10.45;;;18.00;99.90;;;;;;7398491;19;20010;-81
2022/09/06 05:23:38;;;;;;;12.98;11.68;;;18.00;99.90;;;;;;7394413;19;20034;-81
2022/09/06 05:26:05;;;;;;;13.40;11.30;;;18.20;99.90;;;;;;7397954;19;20471;-81
2022/09/06 05:28:31;;;;;;;15.52;11.30;;;18.20;99.90;;;;;;7396265;19;20011;-81
2022/09/06 05:31:07;;;;;;;13.05;11.80;;;18.20;99.90;;;;;;7400209;19;20006;-81
2022/09/06 05:33:33;;;;;;;12.05;10.82;;;18.20;99.90;;;;;;7395740;19;20010;-81
2022/09/06 05:35:59;;;;;;;11.52;10.40;;;18.20;99.90;;;;;;7392959;19;20538;-80
2022/09/06 05:38:25;;;;;;;13.30;11.70;;;18.40;99.90;;;;;;7397377;19;20077;-80
2022/09/06 05:40:51;;;;;;;14.38;12.65;;;18.40;99.90;;;;;;7394254;19;20046;-80
2022/09/06 05:43:16;;;;;;;14.98;13.05;;;18.20;99.90;;;;;;7395377;19;20486;-80
2022/09/06 05:45:42;;;;;;;13.55;10.55;;;18.10;99.90;;;;;;7393445;19;20021;-81
2022/09/06 05:48:08;;;;;;;14.73;13.23;;;18.10;99.90;;;;;;7392563;19;20022;-80
2022/09/06 05:50:34;;;;;;;13.15;11.85;;;18.10;99.90;;;;;;7397205;19;20010;-80
2022/09/06 05:53:00;;;;;;;14.25;12.82;;;18.00;99.90;;;;;;7393292;19;20018;-80
2022/09/06 05:55:25;;;;;;;15.55;13.95;;;18.00;99.90;;;;;;7398705;19;20014;-80
2022/09/06 05:57:51;;;;;;;16.13;13.45;;;17.90;99.90;;;;;;7393349;19;20066;-81
2022/09/06 06:00:17;;;;;;;16.02;13.40;;;17.70;99.90;;;;;;7394672;19;20011;-81
2022/09/06 06:02:46;;;;;;;18.05;16.20;;;17.70;99.90;;;;;;7397887;19;20017;-81
2022/09/06 06:05:13;;;;;;;17.38;15.88;;;17.40;99.90;;;;;;7393186;19;20018;-81
2022/09/06 06:07:39;;;;;;;18.33;16.52;;;17.30;99.90;;;;;;7394357;19;20077;-81
2022/09/06 06:10:05;;;;;;;18.05;16.20;;;17.10;99.90;;;;;;7394227;19;20390;-81
2022/09/06 06:12:31;;;;;;;19.15;17.35;;;17.00;99.90;;;;;;7397740;19;20034;-81
2022/09/06 06:14:58;;;;;;;21.60;18.50;;;17.00;99.90;;;;;;7391840;19;20011;-80
2022/09/06 06:17:24;;;;;;;20.88;17.80;;;16.90;99.90;;;;;;7392738;19;20501;-80
2022/09/06 06:19:50;;;;;;;17.65;15.82;;;16.90;99.90;;;;;;7392662;19;20019;-80
2022/09/06 06:22:15;;;;;;;18.80;16.88;;;16.90;99.90;;;;;;7395445;19;20488;-80
2022/09/06 06:24:41;;;;;;;14.02;12.70;;;16.90;99.90;;;;;;7396542;19;20447;-80
2022/09/06 06:27:07;;;;;;;17.50;15.90;;;17.00;99.90;;;;;;7392164;19;20007;-80
2022/09/06 06:29:33;;;;;;;18.75;17.02;;;17.10;99.90;;;;;;7395230;19;20511;-80
2022/09/06 06:31:59;;;;;;;21.65;19.65;;;17.20;99.90;;;;;;7395215;19;20014;-80
2022/09/06 06:34:25;;;;;;;20.63;18.63;;;17.10;99.90;;;;;;7392094;19;20015;-80
2022/09/06 06:36:51;;;;;;;21.45;19.50;;;17.00;99.90;;;;;;7391649;19;20480;-81
2022/09/06 06:39:16;;;;;;;21.13;19.13;;;17.00;99.90;;;;;;7393316;19;20031;-80
2022/09/06 06:41:42;;;;;;;23.90;21.65;;;17.00;99.90;;;;;;7393330;19;20041;-80
2022/09/06 06:44:08;;;;;;;22.20;20.02;;;17.00;99.90;;;;;;7391627;19;20015;-80
2022/09/06 06:46:36;;;;;;;16.25;14.55;;;17.00;99.90;;;;;;7393389;19;20015;-80
2022/09/06 06:49:03;;;;;;;18.55;16.65;;;17.00;99.90;;;;;;7395745;19;20018;-80
2022/09/06 06:51:30;;;;;;;19.98;17.98;;;17.10;99.90;;;;;;7391498;19;20514;-80
2022/09/06 06:53:57;;;;;;;18.35;16.75;;;17.20;99.90;;;;;;7392791;19;20022;-80
2022/09/06 06:56:28;;;;;;;16.48;14.70;;;17.30;99.90;;;;;;7393311;19;20014;-80
2022/09/06 06:58:56;;;;;;;16.15;14.55;;;17.40;99.90;;;;;;7390805;19;20006;-80
2022/09/06 07:01:23;;;;;;;18.38;16.63;;;17.50;99.90;;;;;;7394668;19;20507;-80
2022/09/06 07:03:49;;;;;;;18.23;16.52;;;17.60;99.90;;;;;;7394297;19;20029;-79
2022/09/06 07:06:17;;;;;;;20.02;18.30;;;17.70;99.90;;;;;;7391386;19;20006;-80
2022/09/06 07:08:44;;;;;;;18.50;16.55;;;17.80;99.90;;;;;;7393515;19;20068;-79
2022/09/06 07:11:12;;;;;;;22.65;17.70;;;17.90;99.90;;;;;;7396324;19;20326;-77
2022/09/06 07:13:38;;;;;;;20.38;18.42;;;17.90;99.90;;;;;;7390222;19;20014;-76
2022/09/06 07:16:09;;;;;;;16.30;14.70;;;18.10;99.90;;;;;;7394394;19;20038;-78
2022/09/06 07:18:40;;;;;;;15.10;13.60;;;18.20;99.90;;;;;;7394052;19;20015;-78
2022/09/06 07:21:08;;;;;;;13.93;12.57;;;18.40;99.90;;;;;;7394769;19;20055;-79
2022/09/06 07:23:34;;;;;;;18.83;17.02;;;18.60;99.90;;;;;;7394527;19;20010;-85
2022/09/06 07:25:59;;;;;;;13.93;12.50;;;18.70;99.90;;;;;;7395304;19;20540;-88
2022/09/06 07:28:25;;;;;;;18.20;13.65;;;18.90;99.90;;;;;;7390236;19;20021;-88
2022/09/06 07:30:53;;;;;;;15.48;13.75;;;19.10;99.90;;;;;;7389898;19;20082;-90
2022/09/06 07:33:19;;;;;;;15.70;13.93;;;19.20;99.90;;;;;;7391927;19;20010;-89
2022/09/06 07:36:00;;;;;;;15.20;13.70;;;19.60;99.90;;;;;;7390632;19;20108;-90
2022/09/06 07:38:27;;;;;;;13.07;11.80;;;19.90;99.90;;;;;;7389653;19;20475;-91
2022/09/06 07:40:55;;;;;;;15.07;13.40;;;20.20;99.90;;;;;;7389667;19;20048;-87
2022/09/06 07:43:21;;;;;;;18.58;15.65;;;20.60;99.90;;;;;;7389411;19;20383;-89
2022/09/06 07:45:47;;;;;;;14.93;13.45;;;20.90;99.90;;;;;;7391364;19;20369;-91
2022/09/06 07:48:13;;;;;;;14.15;12.57;;;21.20;99.90;;;;;;7389643;19;20408;-91
2022/09/06 07:50:39;;;;;;;14.60;12.68;;;21.10;99.90;;;;;;7391711;19;20504;-93
2022/09/06 07:53:05;;;;;;;12.15;10.80;;;21.00;99.90;;;;;;7392242;19;20025;-92
2022/09/06 07:55:31;;;;;;;14.80;12.90;;;20.80;99.90;;;;;;7388754;19;20421;-91
2022/09/06 07:57:57;;;;;;;16.17;12.73;;;20.60;99.90;;;;;;7388268;19;20518;-95
2022/09/06 08:00:24;;;;;;;11.27;9.95;;;20.70;99.90;;;;;;7398502;19;20039;-92
2022/09/06 08:02:49;;;;;;;14.23;12.85;;;20.60;99.90;;;;;;7399540;19;20070;-93
2022/09/06 08:05:15;;;;;;;16.67;14.05;;;20.50;99.90;;;;;;7400931;19;20006;-92
2022/09/06 08:07:41;;;;;;;17.45;12.93;;;20.40;99.90;;;;;;7399745;19;20015;-92
2022/09/06 08:10:08;;;;;;;23.85;13.95;;;20.10;99.90;;;;;;7399765;19;20114;-90
2022/09/06 08:12:34;;;;;;;14.57;12.18;;;20.10;99.90;;;;;;7397984;19;20018;-91
2022/09/06 08:15:03;;;;;;;11.38;10.18;;;19.90;99.90;;;;;;7398235;19;20023;-89
2022/09/06 08:17:34;;;;;;;13.90;12.60;;;19.90;99.90;;;;;;7398144;19;20003;-89
2022/09/06 08:20:00;;;;;;;14.52;13.20;;;20.10;99.90;;;;;;7400876;19;20041;-90
2022/09/06 08:22:25;;;;;;;12.68;11.00;;;20.20;99.90;;;;;;7396492;19;20015;-90
2022/09/06 08:24:51;;;;;;;14.55;13.15;;;20.20;99.90;;;;;;7399013;19;20025;-88
2022/09/06 08:27:17;;;;;;;12.35;11.15;;;20.30;99.90;;;;;;7397986;19;20022;-90
2022/09/06 08:29:43;;;;;;;11.75;10.55;;;20.50;99.90;;;;;;7400765;19;20014;-91
2022/09/06 08:32:09;;;;;;;11.15;9.93;;;20.80;99.90;;;;;;7395692;19;20013;-90
2022/09/06 08:34:35;;;;;;;14.05;11.95;;;21.00;99.90;;;;;;7397626;19;20018;-90
2022/09/06 08:37:01;;;;;;;13.15;11.80;;;21.10;99.90;;;;;;7396716;19;20042;-89
2022/09/06 08:39:27;;;;;;;12.23;10.95;;;21.30;99.90;;;;;;7395407;19;20006;-88
2022/09/06 08:42:05;;;;;;;12.05;10.95;;;21.40;99.90;;;;;;7395789;19;20010;-89
2022/09/06 08:44:43;;;;;;;13.48;12.15;;;21.40;99.90;;;;;;7398890;19;20022;-91
2022/09/06 08:47:12;;;;;;;10.60;9.57;;;21.30;99.90;;;;;;7396383;19;20022;-90
2022/09/06 08:49:53;;;;;;;13.30;11.40;;;21.30;99.90;;;;;;7397048;19;20482;-90
2022/09/06 08:52:25;;;;;;;11.30;10.10;;;21.50;99.90;;;;;;7397820;19;20410;-87
2022/09/06 08:55:06;;;;;;;13.05;11.82;;;21.50;99.90;;;;;;7396827;19;20010;-90
2022/09/06 08:57:59;;;;;;;12.07;10.98;;;21.60;99.90;;;;;;7395100;19;20018;-86
2022/09/06 09:00:25;;;;;;;11.68;10.52;;;21.60;99.90;;;;;;7393874;19;20015;-87
2022/09/06 09:03:14;;;;;;;11.00;9.90;;;21.60;99.90;;;;;;7399735;19;20264;-87
2022/09/06 09:05:41;;;;;;;13.73;8.85;;;21.70;99.90;;;;;;7396022;19;20025;-86
2022/09/06 09:08:16;;;;;;;10.07;8.35;;;21.90;99.90;;;;;;7394951;19;20011;-85
2022/09/06 09:11:04;;;;;;;12.90;11.60;;;22.20;99.90;;;;;;7392273;19;20344;-86
2022/09/06 09:13:45;;;;;;;10.82;8.57;;;22.50;99.90;;;;;;7395165;19;20037;-85
2022/09/06 09:16:13;;;;;;;10.63;9.63;;;22.70;99.90;;;;;;7402944;19;20014;-84
2022/09/06 09:18:42;;;;;;;9.60;8.70;;;22.80;99.90;;;;;;7405105;19;20014;-89
2022/09/06 09:21:09;;;;;;;9.95;8.80;;;22.70;99.90;;;;;;7395538;19;20019;-92
2022/09/06 09:23:35;;;;;;;12.02;9.90;;;22.70;99.90;;;;;;7393875;19;20006;-91
2022/09/06 09:26:10;;;;;;;10.13;8.48;;;22.60;99.90;;;;;;7396153;19;20007;-90
2022/09/06 09:28:36;;;;;;;10.27;9.27;;;22.60;99.90;;;;;;7398452;19;20011;-87
2022/09/06 09:31:02;;;;;;;9.55;8.57;;;22.70;99.90;;;;;;7394547;19;20034;-89
2022/09/06 09:33:34;;;;;;;11.63;9.10;;;22.80;99.90;;;;;;7395141;19;20014;-90
2022/09/06 09:36:06;;;;;;;10.90;8.52;;;22.60;99.90;;;;;;7396557;19;20500;-90
2022/09/06 09:38:40;;;;;;;12.20;9.32;;;22.70;99.90;;;;;;7394166;19;20030;-88
2022/09/06 09:41:07;;;;;;;10.27;8.90;;;22.70;99.90;;;;;;7395953;19;20010;-90
2022/09/06 09:44:04;;;;;;;9.20;8.10;;;22.80;99.90;;;;;;7396063;19;20475;-90
2022/09/06 09:46:35;;;;;;;9.00;8.05;;;22.90;99.90;;;;;;7395740;19;20019;-92
2022/09/06 09:49:27;;;;;;;11.02;8.23;;;23.00;99.90;;;;;;7395666;19;20018;-91
2022/09/06 09:52:10;;;;;;;8.50;7.70;;;23.00;99.90;;;;;;7394896;19;20011;-90
2022/09/06 09:54:41;;;;;;;12.98;9.20;;;23.20;99.90;;;;;;7395731;19;20014;-90
2022/09/06 09:57:17;;;;;;;10.25;9.20;;;23.30;99.90;;;;;;7394560;19;20010;-91
2022/09/06 09:59:48;;;;;;;10.90;8.30;;;23.30;99.90;;;;;;7392166;19;20017;-90
2022/09/06 10:02:29;;;;;;;8.68;7.65;;;23.40;99.90;;;;;;7394309;19;20511;-91
2022/09/06 10:05:03;;;;;;;12.50;9.77;;;23.50;99.90;;;;;;7392619;19;20369;-91
2022/09/06 10:07:31;;;;;;;9.15;7.97;;;23.50;99.90;;;;;;7393558;19;20006;-90
2022/09/06 10:10:05;;;;;;;8.20;7.40;;;23.50;99.90;;;;;;7396433;19;20025;-90
2022/09/06 10:12:40;;;;;;;7.45;6.75;;;23.50;99.90;;;;;;7393550;19;20010;-91
2022/09/06 10:15:11;;;;;;;7.80;6.82;;;23.70;99.90;;;;;;7395044;19;20082;-92
2022/09/06 10:17:48;;;;;;;11.05;8.88;;;23.90;99.90;;;;;;7394893;19;20010;-91
2022/09/06 10:20:15;;;;;;;8.73;7.82;;;23.80;99.90;;;;;;7393940;19;20019;-92
2022/09/06 10:22:58;;;;;;;9.25;8.30;;;23.80;99.90;;;;;;7392438;19;20495;-91
2022/09/06 10:25:23;;;;;;;;;;;23.90;99.90;;;;;;7394017;19;20095;-91
2022/09/06 10:28:11;;;;;;;8.23;7.50;;;24.00;99.90;;;;;;7397599;19;20356;-91
2022/09/06 10:31:06;;;;;;;10.70;8.43;;;24.10;99.90;;;;;;7392740;19;20130;-91
2022/09/06 10:33:59;;;;;;;8.35;7.10;;;24.00;99.90;;;;;;7390511;19;20018;-91
2022/09/06 10:36:37;;;;;;;8.25;6.45;;;24.00;99.90;;;;;;7392850;19;20014;-91
2022/09/06 10:39:22;;;;;;;10.70;6.90;;;24.10;99.90;;;;;;7391670;19;20089;-89
2022/09/06 10:42:25;;;;;;;11.43;6.82;;;24.10;99.90;;;;;;7393689;19;20039;-90
2022/09/06 10:45:09;;;;;;;10.15;7.40;;;24.30;99.90;;;;;;7394591;19;20026;-90
2022/09/06 10:47:50;;;;;;;9.82;8.80;;;24.20;99.90;;;;;;7391057;19;20014;-90
2022/09/06 10:50:16;;;;;;;8.93;8.02;;;24.30;99.90;;;;;;7392877;19;20379;-92
2022/09/06 10:52:45;;;;;;;8.65;7.75;;;24.30;99.90;;;;;;7394960;19;20042;-90
2022/09/06 10:55:16;;;;;;;11.98;8.68;;;24.40;99.90;;;;;;7394406;19;20409;-92
2022/09/06 10:57:47;;;;;;;10.50;8.40;;;24.40;99.90;;;;;;7395604;19;20018;-90
2022/09/06 11:00:15;;;;;;;10.63;8.48;;;24.50;99.90;;;;;;7392903;19;20014;-88
2022/09/06 11:03:02;;;;;;;9.82;8.70;;;24.50;99.90;;;;;;7393522;19;20018;-88
2022/09/06 11:05:46;;;;;;;10.13;8.23;;;24.40;99.90;;;;;;7412835;19;20010;-92
2022/09/06 11:08:26;;;;;;;10.98;8.20;;;24.40;99.90;;;;;;7393274;19;20006;-89
2022/09/06 11:10:54;;;;;;;9.35;8.30;;;24.20;99.90;;;;;;7395110;19;20052;-92
2022/09/06 11:13:27;;;;;;;11.77;8.88;;;24.30;99.90;;;;;;7391833;19;20052;-91
2022/09/06 11:16:08;;;;;;;10.60;8.43;;;24.50;99.90;;;;;;7389389;19;20010;-90
2022/09/06 11:18:42;;;;;;;10.23;8.30;;;24.60;99.90;;;;;;7393311;19;20078;-91
2022/09/06 11:21:39;;;;;;;12.98;8.05;;;24.70;99.90;;;;;;7392492;19;20356;-89
2022/09/06 11:24:12;;;;;;;9.13;8.23;;;24.80;99.90;;;;;;7391409;19;20010;-88
2022/09/06 11:27:02;;;;;;;11.25;7.85;;;24.60;99.90;;;;;;7391488;19;20098;-89
2022/09/06 11:29:31;;;;;;;10.57;7.95;;;24.70;99.90;;;;;;7389784;19;20014;-90
2022/09/06 11:32:02;;;;;;;11.00;8.52;;;24.80;99.90;;;;;;7389704;19;20077;-88
2022/09/06 11:34:33;;;;;;;9.27;8.27;;;24.70;99.90;;;;;;7398347;19;20077;-92
2022/09/06 11:37:41;;;;;;;9.20;8.13;;;24.70;99.90;;;;;;7395193;19;20010;-87
2022/09/06 11:40:12;;;;;;;11.25;8.32;;;24.70;99.90;;;;;;7398289;19;20015;-90
2022/09/06 11:42:44;;;;;;;10.98;8.05;;;24.80;99.90;;;;;;7398574;19;20021;-89
2022/09/06 11:45:09;;;;;;;10.82;8.65;;;24.80;99.90;;;;;;7398493;19;20025;-88
2022/09/06 11:47:41;;;;;;;10.25;8.13;;;24.90;99.90;;;;;;7400679;19;20375;-91
2022/09/06 11:50:19;;;;;;;11.10;8.60;;;24.90;99.90;;;;;;7398970;19;20081;-89
2022/09/06 11:52:54;;;;;;;9.88;8.32;;;25.00;99.90;;;;;;7402419;19;20010;-87
2022/09/06 11:55:23;;;;;;;15.10;9.13;;;25.10;99.90;;;;;;7396668;19;20014;-89
2022/09/06 11:57:57;;;;;;;13.65;8.68;;;25.20;99.90;;;;;;7397281;19;20006;-89
2022/09/06 12:00:24;;;;;;;10.25;7.90;;;25.30;99.90;;;;;;7398104;19;20018;-90
2022/09/06 12:02:51;;;;;;;10.75;8.32;;;25.30;99.90;;;;;;7396263;19;20048;-90
2022/09/06 12:05:25;;;;;;;11.48;7.85;;;25.30;99.90;;;;;;7254004;19;20025;-92
2022/09/06 12:08:26;;;;;;;9.90;8.90;;;25.40;99.90;;;;;;7397327;19;20011;-92
2022/09/06 12:11:04;;;;;;;9.48;8.05;;;25.40;99.90;;;;;;7398909;19;20045;-90
2022/09/06 12:13:51;;;;;;;10.55;7.97;;;25.40;99.90;;;;;;7401130;19;20021;-93
2022/09/06 12:16:17;;;;;;;10.00;8.07;;;25.50;99.90;;;;;;7396646;19;20014;-91
2022/09/06 12:18:46;;;;;;;11.65;8.65;;;25.60;99.90;;;;;;7403666;19;20009;-93
2022/09/06 12:21:32;;;;;;;14.40;8.40;;;25.70;99.90;;;;;;7398757;19;20023;-88
2022/09/06 12:23:59;;;;;;;8.15;7.38;;;25.80;99.90;;;;;;7396049;19;20022;-92
2022/09/06 12:26:51;;;;;;;9.43;8.00;;;25.80;99.90;;;;;;7402041;19;20487;-91
2022/09/06 12:29:26;;;;;;;11.95;7.97;;;25.90;99.90;;;;;;7398420;19;20014;-93
2022/09/06 12:31:55;;;;;;;12.15;7.60;;;26.00;99.80;;;;;;7398867;19;20010;-91
2022/09/06 12:34:24;;;;;;;7.85;7.05;;;26.00;99.90;;;;;;7398071;19;20394;-94
2022/09/06 12:36:54;;;;;;;9.43;7.57;;;26.10;99.90;;;;;;7398793;19;20021;-93
2022/09/06 12:39:20;;;;;;;7.90;7.10;;;26.00;99.80;;;;;;7399503;19;20086;-92
2022/09/06 12:41:56;;;;;;;9.43;6.57;;;26.00;99.90;;;;;;7397542;19;20067;-94
2022/09/06 12:44:37;;;;;;;8.05;6.60;;;26.10;99.90;;;;;;7395512;19;20020;-93
2022/09/06 12:47:27;;;;;;;10.50;7.05;;;26.20;99.90;;;;;;7409166;19;20028;-88
2022/09/06 12:50:18;;;;;;;8.38;6.38;;;26.20;99.70;;;;;;7418411;19;20011;-90
2022/09/06 12:52:54;;;;;;;8.30;6.25;;;26.20;99.90;;;;;;7397656;19;20007;-91
2022/09/06 12:55:26;;;;;;;8.63;7.03;;;26.30;99.90;;;;;;7394444;19;20042;-92
2022/09/06 12:57:55;;;;;;;9.80;6.90;;;26.40;99.50;;;;;;7396006;19;20003;-94